Time;durP1;ratioP1;P1;durP2;ratioP2;P2;SDS_P1;SDS_P2;PMS_P1;PMS_P2;Temp;Humidity;BMP_temperature;BMP_pressure;BME280_temperature;BME280_humidity;BME280_pressure;Samples;Min_cycle;Max_cycle;Signal;HPM_P1;HPM_P2
2022/01/08 00:02:06;;;;;;;;;0.00;0.00;;;;;;;;4977838;28;45645;-52
2022/01/08 00:04:31;;;;;;;;;0.00;0.00;;;;;;;;4976576;28;45470;-51
2022/01/08 00:06:56;;;;;;;;;0.00;0.00;;;;;;;;4978481;28;46321;-53
2022/01/08 00:09:22;;;;;;;;;0.00;0.00;;;;;;;;4978188;28;45320;-55
2022/01/08 00:11:47;;;;;;;;;0.00;0.00;;;;;;;;4977850;28;45445;-51
2022/01/08 00:14:14;;;;;;;;;0.00;0.00;;;;;;;;4978420;28;45433;-51
2022/01/08 00:16:39;;;;;;;;;0.00;0.00;;;;;;;;4976475;28;48027;-54
2022/01/08 00:19:05;;;;;;;;;0.00;0.00;;;;;;;;4976837;28;45523;-51
2022/01/08 00:21:30;;;;;;;;;0.00;0.00;;;;;;;;4961554;28;45325;-52
2022/01/08 00:23:55;;;;;;;;;0.00;0.00;;;;;;;;4968740;28;45563;-50
2022/01/08 00:26:21;;;;;;;;;0.00;0.00;;;;;;;;4965732;28;46116;-49
2022/01/08 00:28:46;;;;;;;;;0.00;0.00;;;;;;;;4977423;28;45413;-55
2022/01/08 00:31:11;;;;;;;;;0.00;0.00;;;;;;;;4978088;28;45429;-51
2022/01/08 00:33:40;;;;;;;;;0.00;0.00;;;;;;;;4976785;28;45456;-50
2022/01/08 00:36:05;;;;;;;;;0.00;0.00;;;;;;;;4977757;28;45398;-52
2022/01/08 00:38:31;;;;;;;;;0.00;0.00;;;;;;;;4977424;28;45600;-53
2022/01/08 00:40:56;;;;;;;;;0.00;0.00;;;;;;;;4978138;28;45352;-53
2022/01/08 00:43:21;;;;;;;;;0.00;0.00;;;;;;;;4977392;28;45341;-52
2022/01/08 00:45:47;;;;;;;;;0.00;0.00;;;;;;;;4977515;28;45377;-51
2022/01/08 00:48:12;;;;;;;;;0.00;0.00;;;;;;;;4977645;28;45756;-53
2022/01/08 00:50:37;;;;;;;;;0.25;0.25;;;;;;;;4977394;28;45380;-55
2022/01/08 00:53:03;;;;;;;;;0.00;0.00;;;;;;;;4977773;28;45521;-54
2022/01/08 00:55:28;;;;;;;;;0.00;0.00;;;;;;;;4977214;28;45334;-52
2022/01/08 00:57:53;;;;;;;;;0.00;0.00;;;;;;;;4977311;28;45218;-49
2022/01/08 01:00:18;;;;;;;;;0.00;0.00;;;;;;;;4976931;28;45526;-53
2022/01/08 01:02:43;;;;;;;;;1.00;1.00;;;;;;;;4977790;28;45234;-51
2022/01/08 01:05:09;;;;;;;;;0.75;0.75;;;;;;;;4977005;28;45935;-55
2022/01/08 01:07:34;;;;;;;;;2.00;1.00;;;;;;;;4977361;28;45274;-53
2022/01/08 01:09:59;;;;;;;;;1.25;1.25;;;;;;;;4977518;28;45325;-51
2022/01/08 01:12:25;;;;;;;;;0.50;0.50;;;;;;;;4977149;28;45493;-50
2022/01/08 01:14:50;;;;;;;;;0.00;0.00;;;;;;;;4976457;28;46220;-51
2022/01/08 01:17:15;;;;;;;;;0.00;0.00;;;;;;;;4976536;28;45214;-54
2022/01/08 01:19:40;;;;;;;;;1.00;0.00;;;;;;;;4977190;28;45349;-50
2022/01/08 01:22:06;;;;;;;;;1.00;1.00;;;;;;;;4976146;28;45530;-53
2022/01/08 01:24:33;;;;;;;;;2.00;2.00;;;;;;;;4976270;28;45420;-51
2022/01/08 01:48:27;;;;;;;;;1.00;1.00;;;;;;;;4960896;28;45501;-51
2022/01/08 01:50:53;;;;;;;;;0.00;0.00;;;;;;;;4967035;28;45408;-52
2022/01/08 01:53:18;;;;;;;;;1.00;1.00;;;;;;;;4975522;28;45428;-53
2022/01/08 01:55:44;;;;;;;;;1.00;0.75;;;;;;;;4976281;28;46097;-52
2022/01/08 01:58:09;;;;;;;;;1.00;1.00;;;;;;;;4976614;28;45289;-54
2022/01/08 02:00:35;;;;;;;;;1.00;1.00;;;;;;;;4974722;28;45267;-52
2022/01/08 02:03:00;;;;;;;;;0.00;0.00;;;;;;;;4976213;28;45222;-51
2022/01/08 02:05:26;;;;;;;;;0.50;0.50;;;;;;;;4976388;28;45400;-53
2022/01/08 02:07:53;;;;;;;;;1.75;1.75;;;;;;;;4976744;28;45354;-50
2022/01/08 02:10:18;;;;;;;;;1.00;1.00;;;;;;;;4974953;28;45467;-55
2022/01/08 02:12:44;;;;;;;;;1.00;1.00;;;;;;;;4975697;28;45277;-52
2022/01/08 02:15:09;;;;;;;;;1.75;0.75;;;;;;;;4975295;28;48176;-51
2022/01/08 02:17:34;;;;;;;;;0.00;0.00;;;;;;;;4976550;28;45440;-53
2022/01/08 02:19:59;;;;;;;;;1.00;0.00;;;;;;;;4976966;28;45388;-51
2022/01/08 02:22:25;;;;;;;;;0.00;0.00;;;;;;;;4975385;28;45379;-53
2022/01/08 02:24:51;;;;;;;;;2.00;1.00;;;;;;;;4976241;28;45409;-51
2022/01/08 02:27:16;;;;;;;;;0.00;0.00;;;;;;;;4972000;28;45315;-52
2022/01/08 02:29:42;;;;;;;;;0.00;0.00;;;;;;;;4969018;28;45641;-53
2022/01/08 02:32:11;;;;;;;;;1.00;1.00;;;;;;;;4976204;28;45446;-50
2022/01/08 02:34:37;;;;;;;;;0.00;0.00;;;;;;;;4975964;28;48257;-50
2022/01/08 02:37:03;;;;;;;;;0.00;0.00;;;;;;;;4976241;28;45362;-53
2022/01/08 02:39:30;;;;;;;;;1.00;0.50;;;;;;;;4976496;28;45186;-53
2022/01/08 02:41:58;;;;;;;;;2.00;2.00;;;;;;;;4976060;28;45492;-53
2022/01/08 02:44:24;;;;;;;;;1.00;1.00;;;;;;;;4975564;28;46461;-53
2022/01/08 02:46:49;;;;;;;;;0.75;0.75;;;;;;;;4976159;28;45506;-53
2022/01/08 02:49:15;;;;;;;;;0.00;0.00;;;;;;;;4975830;28;45321;-51
2022/01/08 02:51:40;;;;;;;;;1.00;1.00;;;;;;;;4975932;28;45635;-55
2022/01/08 02:54:07;;;;;;;;;1.00;1.00;;;;;;;;4975720;28;45443;-50
2022/01/08 02:56:32;;;;;;;;;1.00;1.00;;;;;;;;4975872;28;45360;-52
2022/01/08 02:58:57;;;;;;;;;0.00;0.00;;;;;;;;4975189;28;45486;-48
2022/01/08 03:01:23;;;;;;;;;0.00;0.00;;;;;;;;4976363;28;45158;-52
2022/01/08 03:03:48;;;;;;;;;1.00;1.00;;;;;;;;4974756;28;46055;-53
2022/01/08 03:06:13;;;;;;;;;0.00;0.00;;;;;;;;4974073;28;45330;-52
2022/01/08 03:08:39;;;;;;;;;1.00;1.00;;;;;;;;4975834;28;45463;-54
2022/01/08 03:11:04;;;;;;;;;0.25;0.25;;;;;;;;4972179;28;45623;-52
2022/01/08 03:13:29;;;;;;;;;0.00;0.00;;;;;;;;4976038;28;46462;-51
2022/01/08 03:15:54;;;;;;;;;0.25;0.25;;;;;;;;4977550;28;45298;-54
2022/01/08 03:18:19;;;;;;;;;0.00;0.00;;;;;;;;4978704;28;45456;-50
2022/01/08 03:21:00;;;;;;;;;1.00;1.00;;;;;;;;4978422;28;45233;-55
2022/01/08 03:23:26;;;;;;;;;0.00;0.00;;;;;;;;4979031;28;45390;-48
2022/01/08 03:25:51;;;;;;;;;0.00;0.00;;;;;;;;4970220;28;45437;-52
2022/01/08 03:28:16;;;;;;;;;1.00;1.00;;;;;;;;4976846;28;45324;-54
2022/01/08 03:30:41;;;;;;;;;0.50;0.50;;;;;;;;4979295;28;45472;-54
2022/01/08 03:33:07;;;;;;;;;0.25;0.25;;;;;;;;4979027;28;45372;-55
2022/01/08 03:35:33;;;;;;;;;1.00;1.00;;;;;;;;4964851;28;45435;-52
2022/01/08 03:37:59;;;;;;;;;0.00;0.00;;;;;;;;4959765;28;45250;-50
2022/01/08 03:40:24;;;;;;;;;0.00;0.00;;;;;;;;4975567;28;45488;-53
2022/01/08 03:42:49;;;;;;;;;2.50;1.00;;;;;;;;4978927;28;46247;-53
2022/01/08 03:45:14;;;;;;;;;1.00;1.00;;;;;;;;4978172;28;45449;-55
2022/01/08 03:50:13;;;;;;;;;0.00;0.00;;;;;;;;4978394;28;45339;-55
2022/01/08 03:52:39;;;;;;;;;0.00;0.00;;;;;;;;4978854;28;45357;-53
2022/01/08 03:55:04;;;;;;;;;0.00;0.00;;;;;;;;4978461;28;45313;-52
2022/01/08 03:57:29;;;;;;;;;1.00;1.00;;;;;;;;4967434;28;45699;-50
2022/01/08 03:59:54;;;;;;;;;1.25;0.75;;;;;;;;4959392;28;45561;-49
2022/01/08 04:02:20;;;;;;;;;0.75;0.75;;;;;;;;4971183;28;45302;-52
2022/01/08 04:04:45;;;;;;;;;1.25;0.75;;;;;;;;4978134;28;45423;-54
2022/01/08 04:07:10;;;;;;;;;0.00;0.00;;;;;;;;4973909;28;45267;-54
2022/01/08 04:09:35;;;;;;;;;1.00;1.00;;;;;;;;4977724;28;45473;-55
2022/01/08 04:12:04;;;;;;;;;0.75;0.00;;;;;;;;4977709;28;45850;-53
2022/01/08 04:14:36;;;;;;;;;0.50;0.50;;;;;;;;4977189;28;45418;-51
2022/01/08 04:17:02;;;;;;;;;0.25;0.25;;;;;;;;4978829;28;45407;-57
2022/01/08 04:19:27;;;;;;;;;0.25;0.25;;;;;;;;4978547;28;45358;-52
2022/01/08 04:22:10;;;;;;;;;1.00;1.00;;;;;;;;4978025;28;45585;-53
2022/01/08 04:24:36;;;;;;;;;0.00;0.00;;;;;;;;4978014;28;45408;-49
2022/01/08 04:27:01;;;;;;;;;0.00;0.00;;;;;;;;4960392;28;45483;-52
2022/01/08 04:29:26;;;;;;;;;0.50;0.50;;;;;;;;4959808;28;45402;-56
2022/01/08 04:31:51;;;;;;;;;0.00;0.00;;;;;;;;4977653;28;46415;-54
2022/01/08 04:34:16;;;;;;;;;0.00;0.00;;;;;;;;4977654;28;45459;-56
2022/01/08 04:36:42;;;;;;;;;0.50;0.50;;;;;;;;4978381;28;45432;-54
2022/01/08 04:39:07;;;;;;;;;0.00;0.00;;;;;;;;4978113;28;45352;-52
2022/01/08 04:41:32;;;;;;;;;1.75;1.00;;;;;;;;4977813;28;45431;-53
2022/01/08 04:43:57;;;;;;;;;0.00;0.00;;;;;;;;4977726;28;45315;-55
2022/01/08 04:46:22;;;;;;;;;0.50;0.50;;;;;;;;4977409;28;45463;-56
2022/01/08 04:48:48;;;;;;;;;1.00;1.00;;;;;;;;4978214;28;45318;-49
2022/01/08 04:51:13;;;;;;;;;1.75;0.75;;;;;;;;4977667;28;45467;-51
2022/01/08 04:53:38;;;;;;;;;0.50;0.50;;;;;;;;4977674;28;45498;-52
2022/01/08 04:56:04;;;;;;;;;0.25;0.00;;;;;;;;4977612;28;45329;-51
2022/01/08 04:58:29;;;;;;;;;0.25;0.25;;;;;;;;4977656;28;45421;-51
2022/01/08 05:00:55;;;;;;;;;0.75;0.75;;;;;;;;4978159;28;45393;-55
2022/01/08 05:03:20;;;;;;;;;1.00;0.00;;;;;;;;4978078;28;45450;-55
2022/01/08 05:05:46;;;;;;;;;0.00;0.00;;;;;;;;4972343;28;45488;-55
2022/01/08 05:08:11;;;;;;;;;0.75;0.75;;;;;;;;4958130;28;45311;-51
2022/01/08 05:10:36;;;;;;;;;2.00;0.00;;;;;;;;4958160;28;46177;-54
2022/01/08 05:13:04;;;;;;;;;1.00;0.00;;;;;;;;4964261;28;45271;-53
2022/01/08 05:15:30;;;;;;;;;0.00;0.00;;;;;;;;4977724;28;45711;-54
2022/01/08 05:17:55;;;;;;;;;0.00;0.00;;;;;;;;4977284;28;45517;-53
2022/01/08 05:20:21;;;;;;;;;0.00;0.00;;;;;;;;4977228;28;45452;-52
2022/01/08 05:22:59;;;;;;;;;0.00;0.00;;;;;;;;4977085;28;45404;-53
2022/01/08 05:25:25;;;;;;;;;1.00;1.00;;;;;;;;4957667;28;45333;-53
2022/01/08 05:27:50;;;;;;;;;0.00;0.00;;;;;;;;4958066;28;45170;-50
2022/01/08 05:30:16;;;;;;;;;0.00;0.00;;;;;;;;4958470;28;46097;-50
2022/01/08 05:32:42;;;;;;;;;0.75;0.75;;;;;;;;4977287;28;45280;-56
2022/01/08 05:35:07;;;;;;;;;0.00;0.00;;;;;;;;4977342;28;45551;-53
2022/01/08 05:37:32;;;;;;;;;1.00;1.00;;;;;;;;4976683;28;45218;-52
2022/01/08 05:39:58;;;;;;;;;0.50;0.50;;;;;;;;4976606;28;45983;-54
2022/01/08 05:42:23;;;;;;;;;1.25;1.25;;;;;;;;4976203;28;45458;-55
2022/01/08 05:44:48;;;;;;;;;0.00;0.00;;;;;;;;4977516;28;45496;-54
2022/01/08 05:47:14;;;;;;;;;0.00;0.00;;;;;;;;4977082;28;45314;-54
2022/01/08 05:49:40;;;;;;;;;0.00;0.00;;;;;;;;4975920;28;46191;-50
2022/01/08 05:52:05;;;;;;;;;1.75;0.75;;;;;;;;4976780;28;45406;-58
2022/01/08 05:54:30;;;;;;;;;0.00;0.00;;;;;;;;4976698;28;45883;-56
2022/01/08 05:56:55;;;;;;;;;0.25;0.25;;;;;;;;4976936;28;45563;-52
2022/01/08 05:59:22;;;;;;;;;0.75;0.75;;;;;;;;4977119;28;45344;-51
2022/01/08 06:01:47;;;;;;;;;0.00;0.00;;;;;;;;4976619;28;45395;-54
2022/01/08 06:04:13;;;;;;;;;0.25;0.25;;;;;;;;4976636;28;45449;-51
2022/01/08 06:06:40;;;;;;;;;2.75;1.00;;;;;;;;4977170;28;45497;-55
2022/01/08 06:09:05;;;;;;;;;0.25;0.25;;;;;;;;4977121;28;46001;-50
2022/01/08 06:11:30;;;;;;;;;0.00;0.00;;;;;;;;4976396;28;45322;-53
2022/01/08 06:13:55;;;;;;;;;0.00;0.00;;;;;;;;4975036;28;45446;-55
2022/01/08 06:16:21;;;;;;;;;0.00;0.00;;;;;;;;4976841;28;45339;-51
2022/01/08 06:18:46;;;;;;;;;0.25;0.25;;;;;;;;4976640;28;46224;-53
2022/01/08 06:21:11;;;;;;;;;0.00;0.00;;;;;;;;4975866;28;45368;-57
2022/01/08 06:23:36;;;;;;;;;0.00;0.00;;;;;;;;4976366;28;45300;-51
2022/01/08 06:26:02;;;;;;;;;2.25;0.50;;;;;;;;4970199;28;45674;-52
2022/01/08 06:28:27;;;;;;;;;0.50;0.00;;;;;;;;4976411;28;45488;-52
2022/01/08 06:30:53;;;;;;;;;0.25;0.25;;;;;;;;4976470;28;45317;-52
2022/01/08 06:33:19;;;;;;;;;1.00;1.00;;;;;;;;4976268;28;45531;-51
2022/01/08 06:35:44;;;;;;;;;1.00;1.00;;;;;;;;4976087;28;45539;-52
2022/01/08 06:38:10;;;;;;;;;0.75;0.75;;;;;;;;4976548;28;45468;-53
2022/01/08 06:40:35;;;;;;;;;0.00;0.00;;;;;;;;4976472;28;45444;-52
2022/01/08 06:43:00;;;;;;;;;2.00;1.50;;;;;;;;4976348;28;45474;-51
2022/01/08 06:45:25;;;;;;;;;0.50;0.50;;;;;;;;4976046;28;45511;-51
2022/01/08 06:47:51;;;;;;;;;3.00;1.00;;;;;;;;4975893;28;45402;-52
2022/01/08 06:50:16;;;;;;;;;2.25;1.00;;;;;;;;4978493;28;45456;-53
2022/01/08 06:52:41;;;;;;;;;1.50;1.00;;;;;;;;4979629;28;45363;-52
2022/01/08 06:55:06;;;;;;;;;1.00;1.00;;;;;;;;4979875;28;45552;-52
2022/01/08 06:57:32;;;;;;;;;1.00;1.00;;;;;;;;4979250;28;45352;-54
2022/01/08 06:59:57;;;;;;;;;1.75;1.00;;;;;;;;4979905;28;45293;-56
2022/01/08 07:02:22;;;;;;;;;1.00;1.00;;;;;;;;4979566;28;45250;-55
2022/01/08 07:04:47;;;;;;;;;0.25;0.25;;;;;;;;4979585;28;45317;-55
2022/01/08 07:07:13;;;;;;;;;4.00;2.50;;;;;;;;4979685;28;45483;-49
2022/01/08 07:09:38;;;;;;;;;3.00;2.00;;;;;;;;4979258;28;45364;-50
2022/01/08 07:12:03;;;;;;;;;4.00;2.00;;;;;;;;4979079;28;45392;-55
2022/01/08 07:14:28;;;;;;;;;4.25;1.00;;;;;;;;4979511;28;45411;-53
2022/01/08 07:16:54;;;;;;;;;2.25;2.25;;;;;;;;4979095;28;46292;-53
2022/01/08 07:19:19;;;;;;;;;6.00;2.50;;;;;;;;4998476;28;45397;-53
2022/01/08 07:21:45;;;;;;;;;7.00;2.00;;;;;;;;4979043;28;45436;-53
2022/01/08 07:24:10;;;;;;;;;2.00;2.00;;;;;;;;4979183;28;45568;-52
2022/01/08 07:26:35;;;;;;;;;2.00;2.00;;;;;;;;4968055;28;46210;-55
2022/01/08 07:29:00;;;;;;;;;1.50;1.50;;;;;;;;4979316;28;45204;-54
2022/01/08 07:31:25;;;;;;;;;2.25;2.25;;;;;;;;4978613;28;45433;-54
2022/01/08 07:33:51;;;;;;;;;2.50;2.50;;;;;;;;4978824;28;45585;-53
2022/01/08 07:36:17;;;;;;;;;1.50;1.50;;;;;;;;4978545;28;45399;-51
2022/01/08 07:38:42;;;;;;;;;3.00;3.00;;;;;;;;4979122;28;45383;-51
2022/01/08 07:41:08;;;;;;;;;1.00;1.00;;;;;;;;4978832;28;45400;-55
2022/01/08 07:43:33;;;;;;;;;2.00;2.00;;;;;;;;4979099;28;45660;-52
2022/01/08 07:45:58;;;;;;;;;2.75;2.75;;;;;;;;4978204;28;45349;-53
2022/01/08 07:48:23;;;;;;;;;3.75;3.75;;;;;;;;4977705;28;45250;-52
2022/01/08 07:50:49;;;;;;;;;2.00;2.00;;;;;;;;4979004;28;45252;-52
2022/01/08 07:53:14;;;;;;;;;3.00;2.75;;;;;;;;4978105;28;45251;-51
2022/01/08 07:55:39;;;;;;;;;2.50;2.50;;;;;;;;4977494;28;46054;-53
2022/01/08 07:58:04;;;;;;;;;5.00;4.00;;;;;;;;4978346;28;45399;-53
2022/01/08 08:00:29;;;;;;;;;3.50;2.00;;;;;;;;4978503;28;45559;-53
2022/01/08 08:02:55;;;;;;;;;2.00;2.00;;;;;;;;4991029;28;45243;-52
2022/01/08 08:05:20;;;;;;;;;4.25;2.00;;;;;;;;4976312;28;46403;-46
2022/01/08 08:07:45;;;;;;;;;5.00;5.00;;;;;;;;4978722;28;45417;-47
2022/01/08 08:10:15;;;;;;;;;3.00;3.00;;;;;;;;4979129;28;45249;-47
2022/01/08 08:12:41;;;;;;;;;4.50;4.50;;;;;;;;4976765;28;45468;-57
2022/01/08 08:15:06;;;;;;;;;5.00;5.00;;;;;;;;4973916;28;46437;-47
2022/01/08 08:17:33;;;;;;;;;9.75;5.50;;;;;;;;4975594;28;45569;-47
2022/01/08 08:19:58;;;;;;;;;3.00;3.00;;;;;;;;4977523;28;45522;-59
2022/01/08 08:22:23;;;;;;;;;5.00;5.00;;;;;;;;4976013;28;45687;-58
2022/01/08 08:24:48;;;;;;;;;3.50;3.50;;;;;;;;4977734;28;46479;-59
2022/01/08 08:27:14;;;;;;;;;6.00;3.50;;;;;;;;4970483;28;45383;-50
2022/01/08 08:29:40;;;;;;;;;2.25;2.25;;;;;;;;4981846;28;45301;-60
2022/01/08 08:32:06;;;;;;;;;4.25;3.00;;;;;;;;4975565;28;45813;-60
2022/01/08 08:34:31;;;;;;;;;4.75;3.50;;;;;;;;4977904;28;45314;-58
2022/01/08 08:36:56;;;;;;;;;1.50;1.50;;;;;;;;4977285;28;45338;-60
2022/01/08 08:39:21;;;;;;;;;8.50;5.00;;;;;;;;4976604;28;45339;-61
2022/01/08 08:41:46;;;;;;;;;7.00;6.25;;;;;;;;4976427;28;45496;-58
2022/01/08 08:44:12;;;;;;;;;4.00;4.00;;;;;;;;4977510;28;45483;-48
2022/01/08 08:46:37;;;;;;;;;2.25;2.00;;;;;;;;4975596;28;45406;-50
2022/01/08 08:49:02;;;;;;;;;5.75;5.75;;;;;;;;4977112;28;45360;-55
2022/01/08 08:51:27;;;;;;;;;7.25;6.00;;;;;;;;4977627;28;45318;-51
2022/01/08 08:53:52;;;;;;;;;7.00;6.50;;;;;;;;4975096;28;45501;-53
2022/01/08 08:56:18;;;;;;;;;10.00;5.75;;;;;;;;4976212;28;45538;-54
2022/01/08 08:58:43;;;;;;;;;8.50;6.00;;;;;;;;4976073;28;45465;-53
2022/01/08 09:01:08;;;;;;;;;10.50;6.00;;;;;;;;4980500;28;45516;-53
2022/01/08 09:03:33;;;;;;;;;6.00;6.00;;;;;;;;4975852;28;45745;-54
2022/01/08 09:05:58;;;;;;;;;6.00;6.00;;;;;;;;4976992;28;45425;-54
2022/01/08 09:08:24;;;;;;;;;7.75;6.50;;;;;;;;4977648;28;45332;-51
2022/01/08 09:10:49;;;;;;;;;9.50;6.50;;;;;;;;4975796;28;45411;-55
2022/01/08 09:13:14;;;;;;;;;3.00;3.00;;;;;;;;4982160;28;45426;-56
2022/01/08 09:15:41;;;;;;;;;2.25;2.25;;;;;;;;4982550;28;45478;-57
2022/01/08 09:18:08;;;;;;;;;10.75;6.50;;;;;;;;4977625;28;45286;-56
2022/01/08 09:20:33;;;;;;;;;7.25;6.50;;;;;;;;4975038;28;45386;-56
2022/01/08 09:22:58;;;;;;;;;10.25;7.50;;;;;;;;4975599;28;46944;-57
2022/01/08 09:25:24;;;;;;;;;8.75;8.00;;;;;;;;4975838;28;45448;-57
2022/01/08 09:27:49;;;;;;;;;9.25;9.00;;;;;;;;4975358;28;45392;-54
2022/01/08 09:30:14;;;;;;;;;10.25;8.50;;;;;;;;4976358;28;45618;-56
2022/01/08 09:32:45;;;;;;;;;10.50;10.50;;;;;;;;4976021;28;46032;-54
2022/01/08 09:35:12;;;;;;;;;5.25;5.25;;;;;;;;4977512;28;45385;-56
2022/01/08 09:37:39;;;;;;;;;7.50;7.50;;;;;;;;4975337;28;45466;-56
2022/01/08 09:40:05;;;;;;;;;10.25;8.25;;;;;;;;4973861;28;45565;-56
2022/01/08 09:42:30;;;;;;;;;11.00;9.25;;;;;;;;4976616;28;46550;-55
2022/01/08 09:44:55;;;;;;;;;8.00;8.00;;;;;;;;4976607;28;45459;-55
2022/01/08 09:47:21;;;;;;;;;10.00;10.00;;;;;;;;4975701;28;45389;-55
2022/01/08 09:49:48;;;;;;;;;8.00;7.75;;;;;;;;4975607;28;45386;-55
2022/01/08 09:52:13;;;;;;;;;9.00;8.25;;;;;;;;4976745;28;46018;-56
2022/01/08 09:54:39;;;;;;;;;8.50;8.25;;;;;;;;4976150;28;45361;-55
2022/01/08 09:57:04;;;;;;;;;11.00;10.75;;;;;;;;4976659;28;45535;-55
2022/01/08 09:59:29;;;;;;;;;9.00;7.25;;;;;;;;4975316;28;45358;-55
2022/01/08 10:01:55;;;;;;;;;8.50;8.00;;;;;;;;4974769;28;46295;-57
2022/01/08 10:04:25;;;;;;;;;10.50;10.00;;;;;;;;4974424;28;45250;-57
2022/01/08 10:06:50;;;;;;;;;11.00;11.00;;;;;;;;4975617;28;45774;-57
2022/01/08 10:09:15;;;;;;;;;9.25;7.50;;;;;;;;4976363;28;45535;-56
2022/01/08 10:11:47;;;;;;;;;8.50;8.50;;;;;;;;4975512;28;45505;-57
2022/01/08 10:14:17;;;;;;;;;11.50;10.00;;;;;;;;4971944;28;45383;-56
2022/01/08 10:19:27;;;;;;;;;9.75;7.50;;;;;;;;4975373;28;45411;-57
2022/01/08 10:21:53;;;;;;;;;5.75;5.75;;;;;;;;4975959;28;45942;-57
2022/01/08 10:24:29;;;;;;;;;7.25;5.75;;;;;;;;4973627;28;45388;-57
2022/01/08 10:27:04;;;;;;;;;5.00;5.00;;;;;;;;4972088;28;45412;-56
2022/01/08 10:29:29;;;;;;;;;6.50;5.75;;;;;;;;4974847;28;45588;-58
2022/01/08 10:31:55;;;;;;;;;7.50;6.00;;;;;;;;4974132;28;46033;-57
2022/01/08 10:34:20;;;;;;;;;7.00;5.50;;;;;;;;4976348;28;45429;-58
2022/01/08 10:36:56;;;;;;;;;6.75;5.00;;;;;;;;4973579;28;45609;-57
2022/01/08 10:39:31;;;;;;;;;9.00;7.75;;;;;;;;4976486;28;45275;-57
2022/01/08 10:41:57;;;;;;;;;7.00;2.33;;;;;;;;4975953;28;45574;-58
2022/01/08 10:44:24;;;;;;;;;4.50;4.50;;;;;;;;4975966;28;45402;-56
2022/01/08 10:47:07;;;;;;;;;11.75;7.50;;;;;;;;4975759;28;45357;-57
2022/01/08 10:49:35;;;;;;;;;6.75;4.00;;;;;;;;4964300;28;45362;-57
2022/01/08 10:52:04;;;;;;;;;7.50;6.00;;;;;;;;4974780;28;45914;-52
2022/01/08 10:54:30;;;;;;;;;6.00;6.00;;;;;;;;4974897;28;45465;-51
2022/01/08 10:56:59;;;;;;;;;8.00;3.50;;;;;;;;4972573;28;45231;-55
2022/01/08 10:59:25;;;;;;;;;7.00;7.00;;;;;;;;4975214;28;45313;-53
2022/01/08 11:01:56;;;;;;;;;8.50;5.00;;;;;;;;4956897;28;46486;-55
2022/01/08 11:04:36;;;;;;;;;3.33;3.33;;;;;;;;4967780;28;45439;-54
2022/01/08 11:07:02;;;;;;;;;7.33;3.67;;;;;;;;4974227;28;45463;-61
2022/01/08 11:09:27;;;;;;;;;5.75;4.50;;;;;;;;4974979;28;45495;-56
2022/01/08 11:11:54;;;;;;;;;2.50;2.00;;;;;;;;4974774;28;45452;-47
2022/01/08 11:14:44;;;;;;;;;9.25;8.00;;;;;;;;4973625;28;45544;-57
2022/01/08 11:17:08;;;;;;;;;12.50;6.00;;;;;;;;4975695;28;45282;-56
2022/01/08 11:19:34;;;;;;;;;7.00;6.67;;;;;;;;4974917;28;45398;-62
2022/01/08 11:22:00;;;;;;;;;6.67;4.33;;;;;;;;4973439;28;46738;-54
2022/01/08 11:24:25;;;;;;;;;8.67;4.33;;;;;;;;4974802;28;45463;-52
2022/01/08 11:26:51;;;;;;;;;6.75;6.00;;;;;;;;4961454;28;45559;-50
2022/01/08 11:29:20;;;;;;;;;7.67;6.00;;;;;;;;4977328;28;45599;-46
2022/01/08 11:31:49;;;;;;;;;7.00;5.00;;;;;;;;4974941;28;46230;-55
2022/01/08 11:34:14;;;;;;;;;6.00;5.00;;;;;;;;4989177;28;45170;-58
2022/01/08 11:36:39;;;;;;;;;5.25;4.00;;;;;;;;4975890;28;45365;-54
2022/01/08 11:39:08;;;;;;;;;6.75;5.75;;;;;;;;4976886;28;45276;-56
2022/01/08 11:41:33;;;;;;;;;4.33;3.67;;;;;;;;4978454;28;45496;-55
2022/01/08 11:43:59;;;;;;;;;7.00;7.00;;;;;;;;4976879;28;45392;-56
2022/01/08 11:46:25;;;;;;;;;547.00;491.00;;;;;;;;4976777;28;45504;-55
2022/01/08 11:48:51;;;;;;;;;8.00;5.00;;;;;;;;4978685;28;45496;-56
2022/01/08 11:51:19;;;;;;;;;5.67;3.33;;;;;;;;4977770;28;46419;-55
2022/01/08 11:53:46;;;;;;;;;9.50;6.75;;;;;;;;4975962;28;45546;-53
2022/01/08 11:56:27;;;;;;;;;4.00;4.00;;;;;;;;4977569;28;45472;-51
2022/01/08 11:59:03;;;;;;;;;2.33;0.67;;;;;;;;4978292;28;45239;-53
2022/01/08 12:01:28;;;;;;;;;6.00;5.33;;;;;;;;4975232;28;46322;-53
2022/01/08 12:03:55;;;;;;;;;6.75;6.75;;;;;;;;4977234;28;45488;-57
2022/01/08 12:06:21;;;;;;;;;7.75;7.75;;;;;;;;4976700;28;45683;-54
2022/01/08 12:09:25;;;;;;;;;8.75;6.00;;;;;;;;4978155;28;45408;-55
2022/01/08 12:11:51;;;;;;;;;6.25;4.25;;;;;;;;4975290;28;45555;-46
2022/01/08 12:14:17;;;;;;;;;9.50;6.50;;;;;;;;4989654;28;45513;-47
2022/01/08 12:16:44;;;;;;;;;3.00;3.00;;;;;;;;4976769;28;45609;-45
2022/01/08 12:19:25;;;;;;;;;9.25;8.00;;;;;;;;4975884;28;45446;-49
2022/01/08 12:21:51;;;;;;;;;7.00;7.00;;;;;;;;4975060;28;69575;-45
2022/01/08 12:24:19;;;;;;;;;6.67;5.67;;;;;;;;4975936;28;45632;-46
2022/01/08 12:26:44;;;;;;;;;5.67;3.33;;;;;;;;4964054;28;45484;-45
2022/01/08 12:29:10;;;;;;;;;4.67;4.67;;;;;;;;4963916;28;45512;-47
2022/01/08 12:31:44;;;;;;;;;6.67;5.00;;;;;;;;4970910;28;46354;-44
2022/01/08 12:34:29;;;;;;;;;4.33;4.00;;;;;;;;4971650;28;45467;-46
2022/01/08 12:37:03;;;;;;;;;5.67;5.67;;;;;;;;4976008;28;45465;-47
2022/01/08 12:39:43;;;;;;;;;7.00;6.00;;;;;;;;4975680;28;45621;-46
2022/01/08 12:42:24;;;;;;;;;7.33;5.33;;;;;;;;4973241;28;46022;-50
2022/01/08 12:45:04;;;;;;;;;3.67;3.33;;;;;;;;4977852;28;45386;-46
2022/01/08 12:47:41;;;;;;;;;3.67;3.67;;;;;;;;4976930;28;45414;-46
2022/01/08 12:50:15;;;;;;;;;10.67;6.00;;;;;;;;4976612;28;45547;-45
2022/01/08 12:53:00;;;;;;;;;6.33;4.00;;;;;;;;4975781;28;46240;-44
2022/01/08 12:55:26;;;;;;;;;5.67;3.67;;;;;;;;4965275;28;45688;-44
2022/01/08 12:57:52;;;;;;;;;7.00;3.67;;;;;;;;4976952;28;45337;-45
2022/01/08 13:00:17;;;;;;;;;6.67;6.67;;;;;;;;4976922;28;45585;-45
2022/01/08 13:02:47;;;;;;;;;8.33;7.33;;;;;;;;4972996;28;47138;-44
2022/01/08 13:05:12;;;;;;;;;8.67;6.00;;;;;;;;4976344;28;45411;-43
2022/01/08 13:07:46;;;;;;;;;7.00;5.33;;;;;;;;4976359;28;45221;-43
2022/01/08 13:10:11;;;;;;;;;6.67;3.33;;;;;;;;4982553;28;45214;-45
2022/01/08 13:12:36;;;;;;;;;3.67;3.33;;;;;;;;4976911;28;46391;-47
2022/01/08 13:15:02;;;;;;;;;8.33;8.33;;;;;;;;4976826;28;45135;-49
2022/01/08 13:17:27;;;;;;;;;9.67;8.00;;;;;;;;4977203;28;45560;-46
2022/01/08 13:20:00;;;;;;;;;6.00;3.00;;;;;;;;4977231;28;45581;-46
2022/01/08 13:22:26;;;;;;;;;4.33;4.33;;;;;;;;4980406;28;45577;-46
2022/01/08 13:24:52;;;;;;;;;7.67;4.33;;;;;;;;4975367;28;45382;-45
2022/01/08 13:27:22;;;;;;;;;7.33;5.33;;;;;;;;4986827;28;45351;-45
2022/01/08 13:29:49;;;;;;;;;3.00;3.00;;;;;;;;4975912;28;45538;-45
2022/01/08 13:32:17;;;;;;;;;8.00;4.67;;;;;;;;4976667;28;45922;-46
2022/01/08 13:34:45;;;;;;;;;7.00;4.00;;;;;;;;4975391;28;45305;-49
2022/01/08 13:37:12;;;;;;;;;3.67;3.00;;;;;;;;4976676;28;45310;-47
2022/01/08 13:39:39;;;;;;;;;8.00;6.00;;;;;;;;4976195;28;45517;-45
2022/01/08 13:42:09;;;;;;;;;6.67;3.67;;;;;;;;4974673;28;45953;-48
2022/01/08 13:44:34;;;;;;;;;6.00;3.33;;;;;;;;4974198;28;45690;-43
2022/01/08 13:46:59;;;;;;;;;6.67;5.33;;;;;;;;4974860;28;45350;-47
2022/01/08 13:49:24;;;;;;;;;2.00;2.00;;;;;;;;4975548;28;45600;-47
2022/01/08 13:51:50;;;;;;;;;5.00;3.33;;;;;;;;4973760;28;45399;-46
2022/01/08 13:54:15;;;;;;;;;24.50;20.50;;;;;;;;4966678;28;45364;-47
2022/01/08 13:56:42;;;;;;;;;6.00;3.33;;;;;;;;4970685;28;45584;-46
2022/01/08 13:59:09;;;;;;;;;11.00;5.67;;;;;;;;4974625;28;45602;-48
2022/01/08 14:01:46;;;;;;;;;4.33;4.33;;;;;;;;4974820;28;45494;-48
2022/01/08 14:04:11;;;;;;;;;8.33;3.33;;;;;;;;4975921;28;45314;-49
2022/01/08 14:06:38;;;;;;;;;4.67;4.00;;;;;;;;4974861;28;45486;-47
2022/01/08 14:09:03;;;;;;;;;6.33;3.00;;;;;;;;4976613;28;45531;-49
2022/01/08 14:11:29;;;;;;;;;6.00;3.00;;;;;;;;4974460;28;45461;-46
2022/01/08 14:13:56;;;;;;;;;3.67;2.00;;;;;;;;4972412;28;45516;-50
2022/01/08 14:16:28;;;;;;;;;5.33;2.67;;;;;;;;4975753;28;45623;-51
2022/01/08 14:19:04;;;;;;;;;2.00;2.00;;;;;;;;4973459;28;45491;-45
2022/01/08 14:21:30;;;;;;;;;3.00;2.00;;;;;;;;4971816;28;45765;-47
2022/01/08 14:23:55;;;;;;;;;7.33;3.00;;;;;;;;4976453;28;45344;-46
2022/01/08 14:26:20;;;;;;;;;4.00;1.00;;;;;;;;4965356;28;45396;-45
2022/01/08 14:29:02;;;;;;;;;3.33;3.33;;;;;;;;4974862;28;45563;-44
2022/01/08 14:31:30;;;;;;;;;2.67;2.00;;;;;;;;4975721;28;46028;-45
2022/01/08 14:34:11;;;;;;;;;2.67;1.00;;;;;;;;4972245;28;45516;-49
2022/01/08 14:36:53;;;;;;;;;6.00;2.67;;;;;;;;4976090;28;45405;-46
2022/01/08 14:39:47;;;;;;;;;3.00;3.00;;;;;;;;4973828;28;45459;-62
2022/01/08 14:42:17;;;;;;;;;4.00;4.00;;;;;;;;4961964;28;45341;-61
2022/01/08 14:44:50;;;;;;;;;4.00;3.33;;;;;;;;4984428;28;45494;-60
2022/01/08 14:47:28;;;;;;;;;3.00;3.00;;;;;;;;4976408;28;45345;-59
2022/01/08 14:49:54;;;;;;;;;2.00;2.00;;;;;;;;4975023;28;45452;-60
2022/01/08 14:52:21;;;;;;;;;3.00;3.00;;;;;;;;4974383;28;46033;-59
2022/01/08 14:54:46;;;;;;;;;2.00;2.00;;;;;;;;4976048;28;46009;-59
2022/01/08 14:57:12;;;;;;;;;3.00;2.00;;;;;;;;4975056;28;45646;-59
2022/01/08 14:59:37;;;;;;;;;9.00;7.33;;;;;;;;4975408;28;45353;-55
2022/01/08 15:02:02;;;;;;;;;3.67;2.00;;;;;;;;4974943;28;46103;-58
2022/01/08 15:04:28;;;;;;;;;4.00;2.00;;;;;;;;4975625;28;45432;-60
2022/01/08 15:06:53;;;;;;;;;3.00;3.00;;;;;;;;4976128;28;45357;-59
2022/01/08 15:09:19;;;;;;;;;3.00;3.00;;;;;;;;4976035;28;45317;-60